X  Lukk Metar værinformasjon om luftfart     ENZV Stavanger Airport, Sola
Temperatur
11°C Temperatur
9°C Duggpunkt
88% Luftfuktighet



Vind
9 M/S
20 MPT
32 KM/T
17 KNP



280°
VEST
Nåværende forhold

Stort sett spredte skyer Stort sett spredte skyer
Trykk 999.92 (hPa) - 29.53 (inHg)
Sikt 6.2 (mil) - 10 (km)
Flyplass
Flyplass-kode ENZV

Plassering: Stavanger Airport, Sola
Avstand: 15 (km)

Metar:
ENZV 260050Z 28017KT 9999 SCT007 BKN010 11/09 Q1000

Tid: 26-05-2022 02:50 CEST